Terminal Aerodrome Forecast
Issued by NWS Atlanta, GA

Home | Current Version | Previous Version | Text Only | Print | Product List | Glossary On
Versions: 1 2 3 4 5 6 7 8 9 10 11 12 13 14 15 16 17 18 19 20 21 22 23 24 25 26 27 28 29 30 31 32 33 34 35 36 37 38 39 40
000
FTUS42 KFFC 270526
TAFATL
TAF
KATL 270526Z 2706/2812 27007KT P6SM SCT040 BKN070
     FM270800 29010KT P6SM SCT030 BKN050
     FM271200 30014G24KT P6SM SCT025 BKN050
     FM271700 31015G25KT P6SM SCT040
     FM280000 32008KT P6SM FEW050=

USA.gov is the U.S. government's official web portal to all federal, state and local government web resources and services.